createdAt,value
2022-08-17T00:01:52.107Z,64.38
2022-08-17T00:04:20.618Z,63.80
2022-08-17T00:06:49.083Z,61.28
2022-08-17T00:09:18.911Z,61.33
2022-08-17T00:12:40.943Z,61.30
2022-08-17T00:14:36.981Z,63.33
2022-08-17T00:17:07.396Z,61.15
2022-08-17T00:19:34.343Z,64.65
2022-08-17T00:22:33.563Z,62.67
2022-08-17T00:24:50.579Z,64.88
2022-08-17T00:27:18.366Z,63.67
2022-08-17T00:29:46.027Z,61.50
2022-08-17T00:33:13.639Z,65.55
2022-08-17T00:35:08.928Z,62.88
2022-08-17T00:40:03.917Z,62.88
2022-08-17T00:42:31.353Z,63.47
2022-08-17T00:44:58.951Z,61.45
2022-08-17T00:47:26.419Z,60.50
2022-08-17T00:49:54.054Z,62.80
2022-08-17T00:52:27.591Z,63.63
2022-08-17T00:54:56.376Z,62.80
2022-08-17T00:57:45.986Z,64.47
2022-08-17T01:00:26.614Z,62.42
2022-08-17T01:03:07.961Z,60.40
2022-08-17T01:05:38.848Z,64.43
2022-08-17T01:08:13.312Z,62.13
2022-08-17T01:10:59.917Z,66.18
2022-08-17T01:13:40.650Z,64.10
2022-08-17T01:16:19.707Z,63.42
2022-08-17T01:18:51.050Z,63.15
2022-08-17T01:21:22.733Z,65.60
2022-08-17T01:23:49.725Z,62.03
2022-08-17T01:26:17.470Z,67.07
2022-08-17T01:28:53.650Z,63.22
2022-08-17T01:31:25.424Z,63.88
2022-08-17T01:33:52.859Z,58.22
2022-08-17T01:36:20.529Z,61.05
2022-08-17T01:38:47.430Z,60.80
2022-08-17T01:41:16.350Z,59.30
2022-08-17T01:43:57.689Z,60.05
2022-08-17T01:46:29.041Z,60.58
2022-08-17T01:48:57.596Z,57.70
2022-08-17T01:51:33.498Z,56.50
2022-08-17T01:54:06.358Z,56.40
2022-08-17T01:56:36.022Z,53.55
2022-08-17T01:59:03.442Z,54.67
2022-08-17T02:01:32.862Z,56.92
2022-08-17T02:04:01.912Z,59.47
2022-08-17T02:06:45.251Z,58.60
2022-08-17T02:09:25.552Z,57.47
2022-08-17T02:11:57.932Z,69.50
2022-08-17T02:14:25.817Z,68.72
2022-08-17T02:16:53.858Z,61.13
2022-08-17T02:19:21.887Z,68.88
2022-08-17T02:21:52.043Z,64.20
2022-08-17T02:25:00.318Z,58.70
2022-08-17T02:27:15.827Z,65.72
2022-08-17T02:29:42.812Z,66.22
2022-08-17T02:32:28.123Z,68.88
2022-08-17T02:35:00.026Z,70.38
2022-08-17T02:37:28.527Z,65.35
2022-08-17T02:39:57.233Z,61.40
2022-08-17T02:42:38.420Z,62.15
2022-08-17T02:45:12.248Z,58.00
2022-08-17T02:47:40.265Z,66.95
2022-08-17T02:50:10.021Z,57.53
2022-08-17T02:52:53.520Z,63.00
2022-08-17T02:55:34.803Z,74.00
2022-08-17T02:58:03.623Z,73.15
2022-08-17T03:00:41.030Z,84.10
2022-08-17T03:03:11.043Z,75.95
2022-08-17T03:05:38.617Z,78.50
2022-08-17T03:08:07.147Z,88.90
2022-08-17T03:10:38.639Z,81.18
2022-08-17T03:13:05.609Z,82.43
2022-08-17T03:15:35.015Z,81.55
2022-08-17T03:18:03.704Z,82.15
2022-08-17T03:20:33.181Z,79.45
2022-08-17T03:23:01.828Z,81.47
2022-08-17T03:25:35.855Z,81.05
2022-08-17T03:28:05.577Z,84.35
2022-08-17T03:30:33.392Z,72.85
2022-08-17T03:33:03.883Z,64.13
2022-08-17T03:35:34.957Z,65.93
2022-08-17T03:38:02.568Z,60.78
2022-08-17T03:40:55.201Z,61.35
2022-08-17T03:43:20.893Z,57.67
2022-08-17T03:46:10.943Z,53.03
2022-08-17T03:49:12.801Z,52.47
2022-08-17T03:51:58.119Z,51.45
2022-08-17T03:54:43.728Z,54.97
2022-08-17T03:57:11.843Z,49.83
2022-08-17T03:59:41.119Z,50.80
2022-08-17T04:02:13.782Z,48.30
2022-08-17T04:04:40.921Z,44.10
2022-08-17T04:07:08.478Z,43.72
2022-08-17T04:09:36.498Z,44.03
2022-08-17T04:12:05.139Z,44.00
2022-08-17T04:14:51.499Z,42.55
2022-08-17T04:17:20.085Z,41.85
2022-08-17T04:19:47.215Z,42.35
2022-08-17T04:22:32.183Z,44.22
2022-08-17T04:25:15.844Z,47.17
2022-08-17T04:27:42.707Z,46.08
2022-08-17T04:30:10.517Z,46.75
2022-08-17T04:33:10.544Z,48.72
2022-08-17T04:36:00.670Z,47.15
2022-08-17T04:38:34.600Z,39.42
2022-08-17T04:41:20.879Z,47.80
2022-08-17T04:43:52.471Z,42.60
2022-08-17T04:46:24.477Z,43.95
2022-08-17T04:48:55.938Z,52.13
2022-08-17T04:51:28.054Z,47.92
2022-08-17T04:54:03.570Z,50.38
2022-08-17T04:56:31.705Z,46.05
2022-08-17T04:59:03.325Z,48.83
2022-08-17T05:01:34.660Z,42.65
2022-08-17T05:04:21.042Z,47.58
2022-08-17T05:06:55.123Z,57.13
2022-08-17T05:09:22.292Z,47.13
2022-08-17T05:11:51.804Z,52.55
2022-08-17T05:14:18.721Z,51.45
2022-08-17T05:16:48.231Z,56.92
2022-08-17T05:19:15.238Z,55.13
2022-08-17T05:21:42.185Z,51.88
2022-08-17T05:24:35.408Z,51.80
2022-08-17T05:26:56.186Z,53.85
2022-08-17T05:29:23.098Z,49.00
2022-08-17T05:32:38.675Z,50.50
2022-08-17T05:35:00.820Z,50.58
2022-08-17T05:37:27.854Z,49.20
2022-08-17T05:39:54.915Z,54.47
2022-08-17T05:42:22.465Z,49.15
2022-08-17T05:44:49.525Z,44.88
2022-08-17T05:47:17.657Z,46.63
2022-08-17T05:49:44.564Z,44.15
2022-08-17T05:52:44.812Z,47.92
2022-08-17T05:55:43.821Z,46.75
2022-08-17T05:58:23.504Z,48.17
2022-08-17T06:01:17.739Z,53.55
2022-08-17T06:04:01.233Z,48.55
2022-08-17T06:06:49.017Z,42.90
2022-08-17T06:09:36.241Z,37.97
2022-08-17T06:12:28.276Z,45.72
2022-08-17T06:15:30.660Z,42.10
2022-08-17T06:18:06.426Z,38.15
2022-08-17T06:21:00.520Z,47.60
2022-08-17T06:23:47.210Z,42.10
2022-08-17T06:26:27.560Z,43.47
2022-08-17T06:29:38.050Z,40.25
2022-08-17T06:32:08.565Z,43.33
2022-08-17T06:34:38.128Z,36.80
2022-08-17T06:37:51.136Z,37.72
2022-08-17T06:40:34.198Z,36.15
2022-08-17T06:43:26.239Z,34.20
2022-08-17T06:46:05.175Z,36.92
2022-08-17T06:48:47.225Z,38.72
2022-08-17T06:51:36.333Z,36.03
2022-08-17T06:54:13.377Z,38.17
2022-08-17T06:57:25.125Z,33.92
2022-08-17T07:00:14.148Z,37.88
2022-08-17T07:03:06.695Z,36.55
2022-08-17T07:06:04.954Z,35.38
2022-08-17T07:08:47.621Z,32.78
2022-08-17T07:11:19.590Z,33.95
2022-08-17T07:14:24.130Z,32.55
2022-08-17T07:16:54.284Z,32.35
2022-08-17T07:19:26.912Z,32.15
2022-08-17T07:22:24.422Z,35.35
2022-08-17T07:24:58.325Z,35.33
2022-08-17T07:27:51.370Z,32.97
2022-08-17T07:30:31.581Z,30.45
2022-08-17T07:33:22.799Z,28.83
2022-08-17T07:35:50.187Z,32.75
2022-08-17T07:38:32.197Z,33.20
2022-08-17T07:41:02.961Z,28.20
2022-08-17T07:43:42.005Z,26.85
2022-08-17T07:46:35.827Z,26.60
2022-08-17T07:49:12.653Z,25.45
2022-08-17T07:51:55.392Z,25.65
2022-08-17T07:54:40.519Z,26.95
2022-08-17T07:57:13.435Z,26.98
2022-08-17T07:59:45.040Z,26.30
2022-08-17T08:02:25.230Z,27.55
2022-08-17T08:05:25.086Z,28.90
2022-08-17T08:08:22.868Z,28.38
2022-08-17T08:11:06.217Z,30.13
2022-08-17T08:13:35.648Z,29.55
2022-08-17T08:16:27.028Z,27.75
2022-08-17T08:19:00.987Z,28.75
2022-08-17T08:21:43.633Z,27.92
2022-08-17T08:25:01.452Z,25.23
2022-08-17T08:27:38.527Z,25.23
2022-08-17T08:30:09.612Z,24.63
2022-08-17T08:33:22.339Z,23.60
2022-08-17T08:36:59.275Z,20.73
2022-08-17T08:39:29.309Z,23.20
2022-08-17T08:42:19.424Z,21.45
2022-08-17T08:45:14.118Z,20.77
2022-08-17T08:48:22.880Z,22.52
2022-08-17T08:51:31.272Z,20.42
2022-08-17T08:54:34.896Z,21.05
2022-08-17T08:57:40.817Z,22.65
2022-08-17T09:00:16.063Z,20.60
2022-08-17T09:03:13.191Z,20.58
2022-08-17T09:05:58.557Z,20.90
2022-08-17T09:08:37.733Z,21.80
2022-08-17T09:16:11.407Z,21.88
2022-08-17T09:19:00.665Z,20.75
2022-08-17T09:21:55.101Z,21.88
2022-08-17T09:24:54.742Z,20.60
2022-08-17T09:27:31.310Z,19.58
2022-08-17T09:30:09.708Z,19.48
2022-08-17T09:32:57.229Z,18.42
2022-08-17T09:35:39.491Z,16.77
2022-08-17T09:38:34.467Z,16.88
2022-08-17T09:41:10.246Z,17.27
2022-08-17T09:43:43.924Z,16.98
2022-08-17T09:46:27.235Z,18.42
2022-08-17T09:49:14.565Z,17.13
2022-08-17T09:51:49.307Z,16.98
2022-08-17T09:54:46.354Z,17.05
2022-08-17T09:57:32.337Z,15.63
2022-08-17T10:00:13.563Z,15.23
2022-08-17T10:03:08.386Z,15.15
2022-08-17T10:05:55.020Z,14.00
2022-08-17T10:08:35.217Z,12.15
2022-08-17T10:11:17.273Z,12.10
2022-08-17T10:14:36.006Z,11.57
2022-08-17T10:17:16.315Z,10.77
2022-08-17T10:20:23.727Z,10.65
2022-08-17T10:23:29.488Z,11.23
2022-08-17T10:26:17.462Z,11.00
2022-08-17T10:29:03.636Z,11.95
2022-08-17T10:31:38.620Z,11.05
2022-08-17T10:34:38.920Z,11.82
2022-08-17T10:37:33.479Z,12.00
2022-08-17T10:40:45.516Z,13.45
2022-08-17T10:44:37.251Z,13.68
2022-08-17T10:46:52.265Z,13.80
2022-08-17T10:49:20.958Z,13.38
2022-08-17T10:52:00.397Z,13.80
2022-08-17T10:54:58.197Z,15.43
2022-08-17T10:57:41.938Z,15.13
2022-08-17T11:00:17.041Z,15.98
2022-08-17T11:02:57.581Z,17.85
2022-08-17T11:05:53.986Z,18.40
2022-08-17T11:08:59.547Z,19.23
2022-08-17T11:11:45.404Z,19.13
2022-08-17T11:14:47.502Z,21.02
2022-08-17T11:17:41.605Z,20.25
2022-08-17T11:20:34.992Z,22.27
2022-08-17T11:23:44.993Z,22.42
2022-08-17T11:26:30.037Z,23.55
2022-08-17T11:29:20.471Z,24.75
2022-08-17T11:32:28.871Z,24.95
2022-08-17T11:35:22.389Z,25.23
2022-08-17T11:38:28.380Z,25.73
2022-08-17T11:41:20.226Z,27.52
2022-08-17T11:44:10.596Z,26.90
2022-08-17T11:47:17.461Z,28.35
2022-08-17T11:50:36.740Z,29.73
2022-08-17T11:53:03.962Z,29.23
2022-08-17T11:55:39.403Z,31.85
2022-08-17T11:58:29.127Z,28.30
2022-08-17T12:01:01.877Z,29.25
2022-08-17T12:06:30.401Z,28.67
2022-08-17T12:09:12.760Z,30.92
2022-08-17T12:12:13.676Z,33.55
2022-08-17T12:15:09.635Z,34.58
2022-08-17T12:17:40.716Z,32.67
2022-08-17T12:20:18.553Z,33.83
2022-08-17T12:22:55.367Z,33.13
2022-08-17T12:25:42.628Z,35.17
2022-08-17T12:28:33.101Z,34.10
2022-08-17T12:31:11.644Z,32.30
2022-08-17T12:33:44.186Z,36.22
2022-08-17T12:36:17.053Z,31.80
2022-08-17T12:39:14.011Z,33.53
2022-08-17T12:41:50.321Z,37.95
2022-08-17T12:47:22.257Z,36.05
2022-08-17T12:49:55.402Z,34.83
2022-08-17T12:52:30.163Z,34.40
2022-08-17T12:55:18.924Z,37.90
2022-08-17T12:57:54.229Z,36.95
2022-08-17T13:00:30.124Z,38.20
2022-08-17T13:03:23.653Z,41.15
2022-08-17T13:06:09.134Z,42.03
2022-08-17T13:08:48.987Z,36.97
2022-08-17T13:11:18.527Z,34.78
2022-08-17T13:13:56.286Z,35.55
2022-08-17T13:16:33.422Z,38.92
2022-08-17T13:19:17.437Z,38.35
2022-08-17T13:21:53.741Z,35.58
2022-08-17T13:24:29.657Z,35.78
2022-08-17T13:27:08.964Z,38.67
2022-08-17T13:29:51.335Z,34.40
2022-08-17T13:32:47.163Z,37.10
2022-08-17T13:35:39.850Z,37.50
2022-08-17T13:38:36.250Z,35.40
2022-08-17T13:41:05.631Z,36.03
2022-08-17T13:43:48.570Z,33.53
2022-08-17T13:49:06.343Z,36.25
2022-08-17T13:51:42.610Z,32.63
2022-08-17T13:54:36.716Z,35.33
2022-08-17T13:57:18.011Z,32.92
2022-08-17T13:59:53.704Z,35.38
2022-08-17T14:02:27.930Z,34.50
2022-08-17T14:04:56.857Z,36.65
2022-08-17T14:07:33.827Z,36.40
2022-08-17T14:10:17.464Z,38.78
2022-08-17T14:12:45.999Z,39.17
2022-08-17T14:15:17.209Z,37.20
2022-08-17T14:17:44.567Z,36.58
2022-08-17T14:20:14.252Z,39.20
2022-08-17T14:22:49.597Z,36.22
2022-08-17T14:25:23.953Z,37.70
2022-08-17T14:27:52.986Z,36.60
2022-08-17T14:30:23.136Z,38.47
2022-08-17T14:32:52.125Z,38.60
2022-08-17T14:35:22.413Z,35.97
2022-08-17T14:37:51.378Z,39.33
2022-08-17T14:40:24.374Z,39.97
2022-08-17T14:42:53.541Z,39.10
2022-08-17T14:45:30.115Z,37.63
2022-08-17T14:48:07.854Z,36.72
2022-08-17T14:50:41.129Z,38.05
2022-08-17T14:53:11.438Z,39.22
2022-08-17T14:55:40.506Z,39.92
2022-08-17T14:58:08.696Z,38.58
2022-08-17T15:00:35.943Z,37.30
2022-08-17T15:03:03.603Z,36.22
2022-08-17T15:05:36.709Z,35.17
2022-08-17T15:08:05.564Z,36.38
2022-08-17T15:10:33.717Z,34.72
2022-08-17T15:13:01.209Z,36.20
2022-08-17T15:15:29.118Z,34.63
2022-08-17T15:17:56.312Z,35.38
2022-08-17T15:20:28.618Z,34.40
2022-08-17T15:22:57.307Z,34.00
2022-08-17T15:25:28.757Z,34.38
2022-08-17T15:27:56.284Z,34.28
2022-08-17T15:30:25.697Z,34.58
2022-08-17T15:32:55.049Z,36.20
2022-08-17T15:35:27.986Z,34.83
2022-08-17T15:38:09.834Z,30.60
2022-08-17T15:40:45.148Z,34.90
2022-08-17T15:43:27.970Z,31.40
2022-08-17T15:46:24.288Z,36.42
2022-08-17T15:48:58.230Z,36.90
2022-08-17T15:51:34.636Z,31.52
2022-08-17T15:54:19.414Z,33.95
2022-08-17T15:56:49.599Z,36.97
2022-08-17T15:59:16.529Z,37.20
2022-08-17T16:03:01.640Z,31.63
2022-08-17T16:04:31.942Z,36.28
2022-08-17T16:06:59.912Z,36.15
2022-08-17T16:09:27.516Z,36.22
2022-08-17T16:11:56.124Z,36.58
2022-08-17T16:14:28.864Z,34.72
2022-08-17T16:17:01.006Z,35.22
2022-08-17T16:19:27.870Z,33.15
2022-08-17T16:21:55.060Z,34.20
2022-08-17T16:24:22.026Z,31.58
2022-08-17T16:26:48.886Z,32.30
2022-08-17T16:29:15.859Z,33.05
2022-08-17T16:31:43.287Z,31.48
2022-08-17T16:34:17.549Z,30.80
2022-08-17T16:36:55.043Z,32.53
2022-08-17T16:39:25.735Z,31.58
2022-08-17T16:41:52.738Z,30.17
2022-08-17T16:44:21.711Z,30.20
2022-08-17T16:46:50.149Z,34.28
2022-08-17T16:49:35.992Z,33.97
2022-08-17T16:52:10.695Z,31.92
2022-08-17T16:54:43.292Z,32.47
2022-08-17T16:57:13.675Z,33.47
2022-08-17T16:59:44.916Z,31.38
2022-08-17T17:02:16.837Z,31.33
2022-08-17T17:04:53.659Z,31.80
2022-08-17T17:07:38.399Z,29.88
2022-08-17T17:10:12.809Z,33.22
2022-08-17T17:13:01.183Z,31.10
2022-08-17T17:15:43.641Z,32.80
2022-08-17T17:18:13.916Z,30.23
2022-08-17T17:20:52.431Z,29.80
2022-08-17T17:23:59.786Z,31.63
2022-08-17T17:27:07.215Z,32.67
2022-08-17T17:30:05.205Z,31.92
2022-08-17T17:32:48.395Z,31.05
2022-08-17T17:35:18.024Z,31.45
2022-08-17T17:37:46.812Z,32.17
2022-08-17T17:40:25.460Z,33.65
2022-08-17T17:42:56.219Z,30.52
2022-08-17T17:45:33.086Z,31.67
2022-08-17T17:48:00.019Z,33.00
2022-08-17T17:50:38.548Z,32.55
2022-08-17T17:53:09.497Z,31.65
2022-08-17T17:56:02.794Z,31.38
2022-08-17T17:58:58.962Z,31.25
2022-08-17T18:02:02.168Z,32.08
2022-08-17T18:04:42.992Z,30.77
2022-08-17T18:07:38.265Z,29.75
2022-08-17T18:10:31.616Z,31.10
2022-08-17T18:13:31.124Z,29.92
2022-08-17T18:16:01.003Z,32.05
2022-08-17T18:18:48.282Z,30.83
2022-08-17T18:21:25.128Z,29.88
2022-08-17T18:23:59.687Z,32.13
2022-08-17T18:26:45.109Z,29.95
2022-08-17T18:29:31.541Z,30.73
2022-08-17T18:32:34.233Z,32.30
2022-08-17T18:35:16.182Z,30.58
2022-08-17T18:38:13.703Z,31.77
2022-08-17T18:40:44.862Z,30.45
2022-08-17T18:43:44.468Z,31.98
2022-08-17T18:46:35.136Z,31.73
2022-08-17T18:49:35.262Z,33.17
2022-08-17T18:52:30.616Z,33.25
2022-08-17T18:55:38.439Z,31.52
2022-08-17T18:58:27.749Z,32.03
2022-08-17T19:01:14.067Z,31.80
2022-08-17T19:03:55.583Z,30.60
2022-08-17T19:09:40.766Z,29.70
2022-08-17T19:12:24.911Z,29.23
2022-08-17T19:14:58.927Z,28.30
2022-08-17T19:18:07.792Z,30.15
2022-08-17T19:20:46.378Z,31.10
2022-08-17T19:23:38.496Z,30.85
2022-08-17T19:26:54.224Z,29.60
2022-08-17T19:30:20.510Z,31.25
2022-08-17T19:32:58.941Z,29.10
2022-08-17T19:36:00.213Z,32.40
2022-08-17T19:38:53.065Z,27.52
2022-08-17T19:41:28.607Z,28.77
2022-08-17T19:44:46.508Z,28.50
2022-08-17T19:47:54.230Z,28.08
2022-08-17T19:50:54.428Z,29.80
2022-08-17T19:54:11.535Z,26.92
2022-08-17T19:56:58.762Z,26.60
2022-08-17T19:59:36.087Z,28.77
2022-08-17T20:02:28.239Z,28.42
2022-08-17T20:05:01.899Z,27.10
2022-08-17T20:07:56.069Z,27.25
2022-08-17T20:10:54.869Z,25.67
2022-08-17T20:13:42.935Z,25.63
2022-08-17T20:16:12.331Z,26.30
2022-08-17T20:19:06.234Z,25.98
2022-08-17T20:22:17.210Z,27.13
2022-08-17T20:24:54.852Z,26.92
2022-08-17T20:27:34.427Z,25.95
2022-08-17T20:30:10.457Z,26.95
2022-08-17T20:32:53.250Z,26.30
2022-08-17T20:35:25.236Z,28.70
2022-08-17T20:38:10.507Z,27.20
2022-08-17T20:41:23.318Z,26.42
2022-08-17T20:44:02.078Z,26.27
2022-08-17T20:46:40.873Z,28.05
2022-08-17T20:50:26.717Z,27.83
2022-08-17T20:52:58.539Z,28.35
2022-08-17T20:55:51.999Z,26.57
2022-08-17T20:58:21.367Z,28.85
2022-08-17T21:00:57.533Z,25.65
2022-08-17T21:03:24.523Z,27.00
2022-08-17T21:06:12.577Z,25.45
2022-08-17T21:09:29.619Z,27.15
2022-08-17T21:12:04.273Z,25.45
2022-08-17T21:14:58.655Z,26.08
2022-08-17T21:17:40.630Z,24.83
2022-08-17T21:20:26.447Z,26.77
2022-08-17T21:23:17.843Z,24.15
2022-08-17T21:26:30.665Z,24.73
2022-08-17T21:29:30.039Z,25.65
2022-08-17T21:32:03.586Z,22.42
2022-08-17T21:34:44.465Z,25.50
2022-08-17T21:37:20.839Z,24.58
2022-08-17T21:39:54.719Z,25.85
2022-08-17T21:42:34.751Z,24.95
2022-08-17T21:45:32.400Z,25.05
2022-08-17T21:48:15.471Z,26.52
2022-08-17T21:50:52.773Z,25.13
2022-08-17T21:53:58.093Z,24.88
2022-08-17T21:56:36.411Z,26.73
2022-08-17T21:59:27.557Z,25.85
2022-08-17T22:02:06.086Z,24.75
2022-08-17T22:04:40.526Z,23.60
2022-08-17T22:07:13.551Z,27.10
2022-08-17T22:09:47.981Z,24.58
2022-08-17T22:12:22.156Z,27.77
2022-08-17T22:15:04.052Z,26.05
2022-08-17T22:17:37.890Z,28.60
2022-08-17T22:20:15.864Z,26.70
2022-08-17T22:23:04.048Z,28.02
2022-08-17T22:25:36.138Z,27.85
2022-08-17T22:28:10.186Z,28.45
2022-08-17T22:30:57.016Z,26.10
2022-08-17T22:33:32.820Z,27.08
2022-08-17T22:36:33.067Z,30.48
2022-08-17T22:39:22.294Z,26.35
2022-08-17T22:42:00.964Z,29.08
2022-08-17T22:44:30.092Z,26.05
2022-08-17T22:47:14.781Z,28.20
2022-08-17T22:49:59.057Z,28.77
2022-08-17T22:52:56.076Z,27.55
2022-08-17T22:55:42.021Z,28.30
2022-08-17T22:58:59.141Z,26.42
2022-08-17T23:01:33.334Z,25.98
2022-08-17T23:04:10.044Z,23.17
2022-08-17T23:06:42.248Z,26.08
2022-08-17T23:09:09.658Z,23.33
2022-08-17T23:11:49.766Z,23.52
2022-08-17T23:14:20.181Z,23.35
2022-08-17T23:16:49.004Z,20.77
2022-08-17T23:19:20.029Z,21.30
2022-08-17T23:21:49.203Z,20.40
2022-08-17T23:24:23.033Z,19.85
2022-08-17T23:26:50.243Z,18.98
2022-08-17T23:29:17.339Z,20.08
2022-08-17T23:31:44.381Z,19.30
2022-08-17T23:34:15.104Z,18.08
2022-08-17T23:36:45.402Z,16.65
2022-08-17T23:39:12.428Z,16.85
2022-08-17T23:41:40.055Z,15.65
2022-08-17T23:44:07.593Z,14.50
2022-08-17T23:46:35.165Z,14.27
2022-08-17T23:49:03.220Z,14.25
2022-08-17T23:51:38.185Z,14.13
2022-08-17T23:54:12.669Z,14.43
2022-08-17T23:56:46.627Z,14.85
2022-08-17T23:59:20.156Z,14.73
